createdAt,value
2022-08-26T00:00:51.682Z,19.9
2022-08-26T00:02:54.983Z,19.9
2022-08-26T00:04:54.166Z,19.8
2022-08-26T00:06:51.591Z,19.8
2022-08-26T00:08:54.126Z,19.7
2022-08-26T00:10:54.384Z,19.7
2022-08-26T00:14:51.544Z,19.5
2022-08-26T00:16:51.622Z,19.5
2022-08-26T00:18:51.650Z,19.5
2022-08-26T00:20:51.573Z,19.4
2022-08-26T00:22:51.685Z,19.3
2022-08-26T00:24:51.549Z,19.3
2022-08-26T00:28:54.482Z,19.1
2022-08-26T00:30:51.578Z,19.1
2022-08-26T00:32:51.571Z,19.1
2022-08-26T00:34:54.626Z,19.1
2022-08-26T00:38:52.845Z,19.1
2022-08-26T00:40:52.886Z,19
2022-08-26T00:42:52.883Z,19
2022-08-26T00:44:51.898Z,19
2022-08-26T00:49:02.604Z,19
2022-08-26T00:50:54.653Z,19.1
2022-08-26T00:52:55.173Z,19.1
2022-08-26T00:54:52.033Z,19.1
2022-08-26T00:58:51.658Z,18.9
2022-08-26T01:00:54.459Z,19
2022-08-26T01:02:54.680Z,18.9
2022-08-26T01:04:54.367Z,18.9
2022-08-26T01:06:52.070Z,18.9
2022-08-26T01:08:51.649Z,18.8
2022-08-26T01:10:51.612Z,18.8
2022-08-26T01:12:54.665Z,18.9
2022-08-26T01:14:51.669Z,19
2022-08-26T01:16:52.961Z,19
2022-08-26T01:18:52.878Z,19
2022-08-26T01:20:52.054Z,18.8
2022-08-26T01:22:52.234Z,18.8
2022-08-26T01:24:54.377Z,18.7
2022-08-26T01:28:51.801Z,18.6
2022-08-26T01:30:52.046Z,18.5
2022-08-26T01:32:57.342Z,18.5
2022-08-26T01:34:51.551Z,18.5
2022-08-26T01:36:51.788Z,18.5
2022-08-26T01:38:51.667Z,18.5
2022-08-26T01:40:54.576Z,18.5
2022-08-26T01:42:51.599Z,18.6
2022-08-26T01:44:51.582Z,18.6
2022-08-26T01:46:51.622Z,18.5
2022-08-26T01:52:54.400Z,18.5
2022-08-26T01:54:51.557Z,18.5
2022-08-26T01:56:51.587Z,18.5
2022-08-26T01:58:54.402Z,18.3
2022-08-26T02:02:57.789Z,18.3
2022-08-26T02:04:53.005Z,18.2
2022-08-26T02:06:51.561Z,18.2
2022-08-26T02:08:54.153Z,18.1
2022-08-26T02:10:51.650Z,18.1
2022-08-26T02:12:51.604Z,18.1
2022-08-26T02:14:51.922Z,18.1
2022-08-26T02:16:58.965Z,18.1
2022-08-26T02:18:52.872Z,18.1
2022-08-26T02:20:51.799Z,18.1
2022-08-26T02:22:52.031Z,18.1
2022-08-26T02:24:52.034Z,18.1
2022-08-26T02:28:54.403Z,18.1
2022-08-26T02:30:51.643Z,18.3
2022-08-26T02:32:52.957Z,18.2
2022-08-26T02:34:58.349Z,18.2
2022-08-26T02:36:52.118Z,18.1
2022-08-26T02:38:52.083Z,18.1
2022-08-26T02:40:51.571Z,18
2022-08-26T02:42:52.803Z,17.9
2022-08-26T02:44:55.480Z,18
2022-08-26T02:46:53.119Z,18
2022-08-26T02:48:51.583Z,17.8
2022-08-26T02:50:52.026Z,17.8
2022-08-26T02:52:51.858Z,17.7
2022-08-26T02:54:52.035Z,17.7
2022-08-26T02:56:51.594Z,17.6
2022-08-26T02:58:51.614Z,17.5
2022-08-26T03:00:52.463Z,17.5
2022-08-26T03:05:01.832Z,17.5
2022-08-26T03:06:52.813Z,17.5
2022-08-26T03:08:51.597Z,17.6
2022-08-26T03:10:54.415Z,17.5
2022-08-26T03:12:52.148Z,17.5
2022-08-26T03:14:51.584Z,17.6
2022-08-26T03:18:52.146Z,17.8
2022-08-26T03:20:51.561Z,17.8
2022-08-26T03:22:52.881Z,17.9
2022-08-26T03:24:54.399Z,17.8
2022-08-26T03:26:57.551Z,17.8
2022-08-26T03:28:54.170Z,17.8
2022-08-26T03:30:54.432Z,17.7
2022-08-26T03:32:54.711Z,17.8
2022-08-26T03:34:51.842Z,17.8
2022-08-26T03:36:51.779Z,17.8
2022-08-26T03:40:52.927Z,17.8
2022-08-26T03:42:52.246Z,17.6
2022-08-26T03:44:51.570Z,17.6
2022-08-26T03:46:51.580Z,17.6
2022-08-26T03:48:52.912Z,17.7
2022-08-26T03:50:51.632Z,17.6
2022-08-26T03:52:51.595Z,17.7
2022-08-26T03:54:52.105Z,17.6
2022-08-26T03:56:54.320Z,17.7
2022-08-26T03:58:51.956Z,17.9
2022-08-26T04:00:55.491Z,17.8
2022-08-26T04:04:52.307Z,17.6
2022-08-26T04:06:51.630Z,17.7
2022-08-26T04:08:52.875Z,17.7
2022-08-26T04:12:55.514Z,17.4
2022-08-26T04:14:51.564Z,17.5
2022-08-26T04:16:51.621Z,17.5
2022-08-26T04:18:53.354Z,17.5
2022-08-26T04:20:54.437Z,17.5
2022-08-26T04:24:51.594Z,17.6
2022-08-26T04:28:51.621Z,17.7
2022-08-26T04:30:51.697Z,17.8
2022-08-26T04:32:52.206Z,17.9
2022-08-26T04:34:51.789Z,17.7
2022-08-26T04:36:51.718Z,17.7
2022-08-26T04:38:51.723Z,17.7
2022-08-26T04:40:52.887Z,17.6
2022-08-26T04:42:51.645Z,17.6
2022-08-26T04:44:51.685Z,17.5
2022-08-26T04:46:55.018Z,17.6
2022-08-26T04:48:52.101Z,17.7
2022-08-26T04:50:51.669Z,17.8
2022-08-26T04:52:58.886Z,17.7
2022-08-26T04:54:51.962Z,17.8
2022-08-26T04:56:52.889Z,17.9
2022-08-26T04:58:52.610Z,17.9
2022-08-26T05:00:52.900Z,18.1
2022-08-26T05:02:51.972Z,18.1
2022-08-26T05:04:51.849Z,18
2022-08-26T05:06:51.973Z,18
2022-08-26T05:08:51.586Z,18.1
2022-08-26T05:10:54.933Z,18.2
2022-08-26T05:12:51.619Z,18.3
2022-08-26T05:14:52.314Z,18.2
2022-08-26T05:16:51.676Z,18.3
2022-08-26T05:18:51.599Z,18.3
2022-08-26T05:20:51.591Z,18.3
2022-08-26T05:22:51.721Z,18.2
2022-08-26T05:24:55.343Z,18.4
2022-08-26T05:26:51.629Z,18.5
2022-08-26T05:28:55.071Z,18.5
2022-08-26T05:30:54.637Z,18.4
2022-08-26T05:32:55.180Z,18.5
2022-08-26T05:34:51.612Z,18.5
2022-08-26T05:36:51.614Z,18.6
2022-08-26T05:38:52.036Z,18.6
2022-08-26T05:42:51.691Z,18.8
2022-08-26T05:44:53.532Z,18.7
2022-08-26T05:46:51.709Z,18.8
2022-08-26T05:48:51.654Z,18.7
2022-08-26T05:50:52.364Z,18.9
2022-08-26T05:52:51.677Z,19
2022-08-26T05:54:51.737Z,19.1
2022-08-26T05:56:55.278Z,19.3
2022-08-26T05:58:51.600Z,18.9
2022-08-26T06:00:52.065Z,18.9
2022-08-26T06:02:52.271Z,19.2
2022-08-26T06:04:51.589Z,19.4
2022-08-26T06:06:52.876Z,19.6
2022-08-26T06:08:51.779Z,19.5
2022-08-26T06:10:52.430Z,20
2022-08-26T06:12:54.667Z,20.6
2022-08-26T06:14:51.723Z,20.9
2022-08-26T06:16:54.543Z,20.6
2022-08-26T06:20:57.512Z,20.3
2022-08-26T06:22:55.437Z,20.4
2022-08-26T06:24:54.439Z,20.6
2022-08-26T06:26:51.799Z,21.9
2022-08-26T06:28:55.188Z,22.1
2022-08-26T06:30:51.656Z,22.7
2022-08-26T06:32:51.652Z,22.8
2022-08-26T06:35:01.262Z,22.9
2022-08-26T06:36:52.270Z,22.9
2022-08-26T06:38:51.631Z,22.9
2022-08-26T06:40:52.153Z,23
2022-08-26T06:42:51.698Z,23.2
2022-08-26T06:46:51.719Z,23.2
2022-08-26T06:48:51.615Z,23.3
2022-08-26T06:50:51.777Z,23.5
2022-08-26T06:52:52.920Z,23.2
2022-08-26T06:54:55.605Z,23
2022-08-26T06:56:51.626Z,23.2
2022-08-26T06:58:54.679Z,23
2022-08-26T07:00:52.918Z,22.6
2022-08-26T07:02:58.073Z,22.4
2022-08-26T07:04:52.174Z,22.2
2022-08-26T07:06:53.332Z,21.9
2022-08-26T07:08:54.922Z,22.2
2022-08-26T07:10:51.620Z,22.5
2022-08-26T07:12:51.629Z,22.6
2022-08-26T07:14:51.594Z,22.6
2022-08-26T07:16:54.510Z,22.5
2022-08-26T07:18:52.187Z,22.7
2022-08-26T07:20:52.099Z,23.1
2022-08-26T07:22:51.717Z,22.8
2022-08-26T07:24:54.860Z,23
2022-08-26T07:26:54.498Z,23.5
2022-08-26T07:28:54.419Z,23.6
2022-08-26T07:30:52.005Z,23.8
2022-08-26T07:32:51.648Z,23.9
2022-08-26T07:34:52.400Z,23.9
2022-08-26T07:36:51.715Z,23.9
2022-08-26T07:38:55.174Z,23.9
2022-08-26T07:40:54.414Z,23.9
2022-08-26T07:42:54.850Z,24
2022-08-26T07:44:52.347Z,24.2
2022-08-26T07:46:54.888Z,24.2
2022-08-26T07:48:51.621Z,24.2
2022-08-26T07:50:54.427Z,24.2
2022-08-26T07:52:57.985Z,24.3
2022-08-26T07:54:51.600Z,24.3
2022-08-26T07:56:52.087Z,24.3
2022-08-26T07:58:52.268Z,24.4
2022-08-26T08:00:52.971Z,24.6
2022-08-26T08:02:54.873Z,24.5
2022-08-26T08:04:53.103Z,24.6
2022-08-26T08:06:52.919Z,24.7
2022-08-26T08:08:51.753Z,24.6
2022-08-26T08:10:51.596Z,24.7
2022-08-26T08:12:58.027Z,24.8
2022-08-26T08:16:54.649Z,24.9
2022-08-26T08:18:53.507Z,25
2022-08-26T08:21:05.158Z,25
2022-08-26T08:24:53.262Z,25.2
2022-08-26T08:26:52.192Z,25.2
2022-08-26T08:30:56.545Z,25.3
2022-08-26T08:32:54.942Z,25.4
2022-08-26T08:34:51.672Z,25.3
2022-08-26T08:36:54.452Z,25.4
2022-08-26T08:38:51.620Z,25.5
2022-08-26T08:40:53.415Z,25.5
2022-08-26T08:44:52.571Z,25.4
2022-08-26T08:46:54.500Z,25.4
2022-08-26T08:50:51.709Z,25.5
2022-08-26T08:52:51.720Z,25.4
2022-08-26T08:54:52.096Z,25.6
2022-08-26T08:56:51.657Z,25.6
2022-08-26T08:58:56.774Z,25.8
2022-08-26T09:00:54.941Z,25.9
2022-08-26T09:02:51.632Z,25.8
2022-08-26T09:06:51.866Z,25.9
2022-08-26T09:08:55.150Z,26
2022-08-26T09:10:52.072Z,26.1
2022-08-26T09:12:52.953Z,26
2022-08-26T09:14:51.993Z,25.8
2022-08-26T09:16:51.807Z,25.7
2022-08-26T09:18:51.612Z,25.6
2022-08-26T09:20:55.013Z,25.6
2022-08-26T09:22:54.731Z,25.7
2022-08-26T09:24:51.618Z,25.9
2022-08-26T09:26:51.638Z,26.1
2022-08-26T09:28:54.453Z,26.2
2022-08-26T09:31:00.851Z,26.2
2022-08-26T09:34:54.230Z,26.1
2022-08-26T09:36:51.696Z,26.3
2022-08-26T09:38:54.928Z,26.4
2022-08-26T09:40:56.223Z,26.6
2022-08-26T09:46:54.877Z,26.4
2022-08-26T09:50:52.133Z,26.1
2022-08-26T09:52:55.496Z,26.1
2022-08-26T09:54:51.905Z,26.1
2022-08-26T09:56:52.118Z,26
2022-08-26T10:01:57.031Z,25.8
2022-08-26T10:03:54.140Z,25.8
2022-08-26T10:05:57.443Z,25.8
2022-08-26T10:07:52.805Z,25.7
2022-08-26T10:12:00.989Z,25.7
2022-08-26T10:13:57.471Z,25.7
2022-08-26T10:15:56.494Z,25.7
2022-08-26T10:17:57.143Z,25.7
2022-08-26T10:19:56.308Z,25.7
2022-08-26T10:23:57.657Z,25.7
2022-08-26T10:25:55.297Z,25.7
2022-08-26T10:27:55.505Z,25.7
2022-08-26T10:29:57.429Z,25.7
2022-08-26T10:31:55.115Z,25.6
2022-08-26T10:33:58.943Z,25.6
2022-08-26T10:37:56.196Z,25.5
2022-08-26T10:39:58.813Z,25.5
2022-08-26T10:43:57.513Z,25.5
2022-08-26T10:45:55.556Z,25.4
2022-08-26T10:50:02.895Z,25.3
2022-08-26T10:51:57.472Z,25.3
2022-08-26T10:53:58.010Z,25.3
2022-08-26T10:55:57.393Z,25.3
2022-08-26T10:57:54.211Z,25.1
2022-08-26T11:01:55.075Z,25.2
2022-08-26T11:03:57.849Z,24.2
2022-08-26T11:05:57.670Z,23.7
2022-08-26T11:08:03.694Z,23.8
2022-08-26T11:09:56.430Z,23.7
2022-08-26T11:11:57.391Z,23.9
2022-08-26T11:13:53.173Z,23.8
2022-08-26T11:15:56.463Z,22.7
2022-08-26T11:17:58.402Z,22.9
2022-08-26T11:20:00.521Z,23.2
2022-08-26T11:21:56.800Z,23.2
2022-08-26T11:25:59.857Z,22.5
2022-08-26T11:27:54.698Z,22.4
2022-08-26T11:30:00.680Z,22.5
2022-08-26T11:31:54.668Z,22.3
2022-08-26T11:33:57.651Z,22.5
2022-08-26T11:35:57.838Z,22.7
2022-08-26T11:37:57.236Z,22.6
2022-08-26T11:39:55.276Z,22.4
2022-08-26T11:41:57.742Z,21.5
2022-08-26T11:43:54.275Z,21.4
2022-08-26T11:45:57.529Z,21.9
2022-08-26T11:47:59.381Z,22.3
2022-08-26T11:49:57.654Z,22.4
2022-08-26T11:51:55.204Z,22.6
2022-08-26T11:53:57.541Z,22.7
2022-08-26T11:55:57.787Z,22.8
2022-08-26T11:57:57.578Z,23
2022-08-26T11:59:57.171Z,22.7
2022-08-26T12:01:57.466Z,22.9
2022-08-26T12:03:58.476Z,23.2
2022-08-26T12:06:01.003Z,23.3
2022-08-26T12:07:57.583Z,23.4
2022-08-26T12:10:03.058Z,23.3
2022-08-26T12:11:58.228Z,23.2
2022-08-26T12:13:54.621Z,22.8
2022-08-26T12:15:59.174Z,23
2022-08-26T12:17:57.855Z,23.1
2022-08-26T12:19:54.519Z,23
2022-08-26T12:21:55.119Z,22.8
2022-08-26T12:25:57.482Z,23.4
2022-08-26T12:27:56.569Z,23.8
2022-08-26T12:29:57.917Z,23.9
2022-08-26T12:31:57.313Z,24.1
2022-08-26T12:33:53.159Z,24.2
2022-08-26T12:35:57.455Z,24.2
2022-08-26T12:39:52.487Z,24.4
2022-08-26T12:41:57.335Z,24.6
2022-08-26T12:43:57.728Z,24.7
2022-08-26T12:45:56.095Z,24.7
2022-08-26T12:49:53.206Z,24.7
2022-08-26T12:51:57.861Z,24.7
2022-08-26T12:53:57.648Z,24.7
2022-08-26T12:55:53.239Z,24.7
2022-08-26T12:57:55.204Z,24.7
2022-08-26T12:59:57.318Z,24.6
2022-08-26T13:01:56.116Z,24.6
2022-08-26T13:03:57.232Z,24.6
2022-08-26T13:05:58.046Z,24.6
2022-08-26T13:07:57.828Z,24.6
2022-08-26T13:10:02.902Z,24.7
2022-08-26T13:12:02.113Z,24.7
2022-08-26T13:13:56.749Z,24.7
2022-08-26T13:15:57.429Z,24.7
2022-08-26T13:20:01.386Z,24.8
2022-08-26T13:21:56.897Z,24.8
2022-08-26T13:23:57.458Z,24.8
2022-08-26T13:25:54.264Z,24.9
2022-08-26T13:27:56.446Z,24.9
2022-08-26T13:30:06.123Z,25
2022-08-26T13:31:57.376Z,25
2022-08-26T13:33:56.394Z,25
2022-08-26T13:35:57.372Z,25
2022-08-26T13:37:55.986Z,25
2022-08-26T13:39:54.322Z,25
2022-08-26T13:41:57.867Z,25.1
2022-08-26T13:43:55.916Z,25.1
2022-08-26T13:46:00.461Z,25.2
2022-08-26T13:47:56.978Z,25.2
2022-08-26T13:49:53.289Z,25.2
2022-08-26T13:51:52.786Z,25.2
2022-08-26T13:53:57.520Z,25.3
2022-08-26T13:55:58.106Z,25.3
2022-08-26T13:57:56.628Z,25.4
2022-08-26T13:59:57.302Z,25.4
2022-08-26T14:02:00.678Z,25.4
2022-08-26T14:03:58.736Z,25.4
2022-08-26T14:07:54.194Z,25.5
2022-08-26T14:09:55.854Z,25.6
2022-08-26T14:13:57.650Z,25.7
2022-08-26T14:16:02.177Z,25.6
2022-08-26T14:19:54.635Z,25.7
2022-08-26T14:22:01.371Z,25.7
2022-08-26T14:27:57.629Z,25.8
2022-08-26T14:32:02.565Z,25.9
2022-08-26T14:33:58.705Z,26
2022-08-26T14:35:57.731Z,26
2022-08-26T14:37:56.015Z,26
2022-08-26T14:39:57.109Z,25.9
2022-08-26T14:41:57.871Z,25.8
2022-08-26T14:44:01.335Z,25.8
2022-08-26T14:45:56.059Z,25.8
2022-08-26T14:47:57.101Z,25.8
2022-08-26T14:49:56.857Z,25.8
2022-08-26T14:52:02.055Z,25.8
2022-08-26T14:53:57.678Z,25.8
2022-08-26T14:56:00.638Z,25.9
2022-08-26T14:57:56.945Z,25.9
2022-08-26T15:01:56.565Z,26
2022-08-26T15:03:57.321Z,25.9
2022-08-26T15:05:58.337Z,26
2022-08-26T15:07:54.635Z,26
2022-08-26T15:09:57.120Z,26
2022-08-26T15:11:57.777Z,26
2022-08-26T15:13:57.977Z,26
2022-08-26T15:15:56.581Z,26
2022-08-26T15:18:01.397Z,26
2022-08-26T15:19:55.530Z,26
2022-08-26T15:22:03.423Z,26.1
2022-08-26T15:25:56.035Z,26.1
2022-08-26T15:27:56.506Z,26
2022-08-26T15:29:57.706Z,26.1
2022-08-26T15:31:57.244Z,26.1
2022-08-26T15:33:54.727Z,26.1
2022-08-26T15:35:57.790Z,26.1
2022-08-26T15:37:54.823Z,26.1
2022-08-26T15:39:58.513Z,26.1
2022-08-26T15:41:57.805Z,26.1
2022-08-26T15:43:56.399Z,26.1
2022-08-26T15:46:03.863Z,26.1
2022-08-26T15:49:53.006Z,26.1
2022-08-26T15:51:56.133Z,26.1
2022-08-26T15:53:57.119Z,26.1
2022-08-26T15:55:56.828Z,26.1
2022-08-26T15:57:55.656Z,26
2022-08-26T15:59:57.737Z,26.1
2022-08-26T16:02:01.876Z,26.1
2022-08-26T16:03:57.368Z,26.1
2022-08-26T16:05:57.819Z,26.1
2022-08-26T16:07:55.569Z,26.1
2022-08-26T16:09:57.576Z,26.1
2022-08-26T16:12:01.030Z,26.1
2022-08-26T16:13:56.062Z,26.1
2022-08-26T16:15:57.061Z,26.1
2022-08-26T16:19:54.929Z,26.1
2022-08-26T16:21:57.251Z,26.1
2022-08-26T16:23:57.529Z,26.1
2022-08-26T16:25:55.969Z,26.1
2022-08-26T16:27:56.904Z,26
2022-08-26T16:29:58.678Z,26
2022-08-26T16:31:55.234Z,26
2022-08-26T16:34:01.072Z,26
2022-08-26T16:35:57.527Z,26
2022-08-26T16:38:00.316Z,25.9
2022-08-26T16:39:58.379Z,25.9
2022-08-26T16:43:54.382Z,25.8
2022-08-26T16:45:59.976Z,25.8
2022-08-26T16:47:57.626Z,25.8
2022-08-26T16:49:54.679Z,25.8
2022-08-26T16:51:54.612Z,25.8
2022-08-26T16:54:01.061Z,25.8
2022-08-26T16:55:56.518Z,25.7
2022-08-26T16:57:56.952Z,25.7
2022-08-26T17:01:55.194Z,23.6
2022-08-26T17:03:55.206Z,23.5
2022-08-26T17:05:57.608Z,23.3
2022-08-26T17:07:55.972Z,23.2
2022-08-26T17:09:56.142Z,23
2022-08-26T17:11:57.602Z,22.6
2022-08-26T17:13:57.090Z,22.4
2022-08-26T17:15:58.518Z,22.3
2022-08-26T17:17:57.615Z,22.3
2022-08-26T17:19:58.398Z,22.3
2022-08-26T17:22:06.853Z,22.7
2022-08-26T17:23:57.716Z,22.7
2022-08-26T17:25:55.134Z,22.8
2022-08-26T17:27:57.540Z,23
2022-08-26T17:29:58.255Z,23.1
2022-08-26T17:31:56.997Z,22.9
2022-08-26T17:33:55.483Z,22.6
2022-08-26T17:35:57.869Z,22.6
2022-08-26T17:38:03.999Z,22.4
2022-08-26T17:39:57.126Z,22.1
2022-08-26T17:41:57.798Z,22.2
2022-08-26T17:43:55.748Z,22
2022-08-26T17:45:57.756Z,22
2022-08-26T17:47:57.910Z,22
2022-08-26T17:49:57.088Z,21.8
2022-08-26T17:55:56.387Z,21.4
2022-08-26T17:57:56.698Z,21.3
2022-08-26T17:59:57.795Z,21.4
2022-08-26T18:02:01.345Z,21.3
2022-08-26T18:03:59.602Z,21.3
2022-08-26T18:05:57.351Z,21.2
2022-08-26T18:07:56.381Z,21.2
2022-08-26T18:09:56.137Z,21.1
2022-08-26T18:11:57.780Z,20.9
2022-08-26T18:13:55.631Z,20.8
2022-08-26T18:15:53.738Z,20.9
2022-08-26T18:17:57.595Z,20.8
2022-08-26T18:19:55.974Z,20.7
2022-08-26T18:21:58.022Z,20.8
2022-08-26T18:25:54.445Z,20.9
2022-08-26T18:27:57.458Z,20.9
2022-08-26T18:29:57.297Z,20.8
2022-08-26T18:31:56.956Z,20.6
2022-08-26T18:33:55.063Z,20.6
2022-08-26T18:38:01.388Z,20.6
2022-08-26T18:39:56.773Z,20.5
2022-08-26T18:41:57.505Z,20.4
2022-08-26T18:43:54.248Z,20.6
2022-08-26T18:45:54.921Z,20.6
2022-08-26T18:47:57.941Z,20.4
2022-08-26T18:49:55.564Z,20.3
2022-08-26T18:51:55.213Z,20.2
2022-08-26T18:53:57.766Z,20.3
2022-08-26T18:55:58.041Z,20.3
2022-08-26T18:57:55.640Z,20.2
2022-08-26T19:01:58.199Z,20.6
2022-08-26T19:03:56.356Z,20.4
2022-08-26T19:08:01.436Z,20.4
2022-08-26T19:09:58.003Z,20.6
2022-08-26T19:13:56.480Z,20.5
2022-08-26T19:16:07.669Z,20.5
2022-08-26T19:17:58.030Z,20.4
2022-08-26T19:19:56.135Z,20.4
2022-08-26T19:22:01.976Z,20.2
2022-08-26T19:23:57.656Z,20.1
2022-08-26T19:25:52.889Z,20.1
2022-08-26T19:27:53.395Z,20.2
2022-08-26T19:29:58.033Z,20.2
2022-08-26T19:31:58.623Z,20.3
2022-08-26T19:33:55.728Z,20.3
2022-08-26T19:37:54.457Z,20.3
2022-08-26T19:39:57.113Z,20.1
2022-08-26T19:43:53.802Z,19.7
2022-08-26T19:45:56.011Z,19.5
2022-08-26T19:47:57.557Z,19.3
2022-08-26T19:49:55.938Z,19.3
2022-08-26T19:51:56.040Z,19.3
2022-08-26T19:53:58.309Z,19.4
2022-08-26T19:55:56.412Z,19.5
2022-08-26T19:57:57.060Z,19.5
2022-08-26T20:02:00.398Z,19.5
2022-08-26T20:03:56.916Z,19.4
2022-08-26T20:07:53.971Z,19.5
2022-08-26T20:09:56.629Z,19.5
2022-08-26T20:13:56.054Z,19.3
2022-08-26T20:15:56.092Z,19.3
2022-08-26T20:17:57.967Z,19.3
2022-08-26T20:19:56.483Z,19.4
2022-08-26T20:21:55.656Z,19.2
2022-08-26T20:23:57.057Z,19.2
2022-08-26T20:25:54.646Z,19.3
2022-08-26T20:27:58.142Z,19.3
2022-08-26T20:29:57.721Z,19.3
2022-08-26T20:31:55.243Z,19.3
2022-08-26T20:33:57.149Z,19.3
2022-08-26T20:35:57.999Z,19.4
2022-08-26T20:37:57.398Z,19.4
2022-08-26T20:39:57.481Z,19.3
2022-08-26T20:41:59.546Z,19.3
2022-08-26T20:43:56.445Z,19.4
2022-08-26T20:47:58.208Z,19.5
2022-08-26T20:49:56.526Z,19.6
2022-08-26T20:51:56.674Z,19.4
2022-08-26T20:53:57.683Z,19.3
2022-08-26T20:55:56.024Z,19.3
2022-08-26T20:57:57.106Z,19.3
2022-08-26T20:59:58.155Z,19.3
2022-08-26T21:02:02.474Z,19.1
2022-08-26T21:03:55.381Z,19
2022-08-26T21:05:57.730Z,19.1
2022-08-26T21:07:54.766Z,19.1
2022-08-26T21:09:57.464Z,19.1
2022-08-26T21:12:00.739Z,19
2022-08-26T21:14:06.878Z,19.1
2022-08-26T21:15:58.442Z,19
2022-08-26T21:17:57.744Z,19.1
2022-08-26T21:19:55.170Z,19
2022-08-26T21:21:57.806Z,19.1
2022-08-26T21:23:57.860Z,19.1
2022-08-26T21:26:04.064Z,19.1
2022-08-26T21:27:57.356Z,19.1
2022-08-26T21:30:10.471Z,19.4
2022-08-26T21:31:54.934Z,19.3
2022-08-26T21:33:54.667Z,19.3
2022-08-26T21:35:57.895Z,19.3
2022-08-26T21:37:56.906Z,19.3
2022-08-26T21:39:57.494Z,19.3
2022-08-26T21:41:57.885Z,19.3
2022-08-26T21:43:56.163Z,19.3
2022-08-26T21:45:59.388Z,19.4
2022-08-26T21:49:56.088Z,19.3
2022-08-26T21:52:01.030Z,19.4
2022-08-26T21:53:57.933Z,19.4
2022-08-26T21:55:58.191Z,19.5
2022-08-26T21:57:55.129Z,19.3
2022-08-26T21:59:57.797Z,19.4
2022-08-26T22:01:56.012Z,19.3
2022-08-26T22:03:56.200Z,19.2
2022-08-26T22:06:01.863Z,19.1
2022-08-26T22:09:54.419Z,19.1
2022-08-26T22:11:57.884Z,18.9
2022-08-26T22:13:57.884Z,18.9
2022-08-26T22:16:00.031Z,18.8
2022-08-26T22:17:57.667Z,18.9
2022-08-26T22:20:03.212Z,18.7
2022-08-26T22:21:56.497Z,18.8
2022-08-26T22:23:58.116Z,18.8
2022-08-26T22:25:56.094Z,18.8
2022-08-26T22:29:57.502Z,18.9
2022-08-26T22:31:57.054Z,18.8
2022-08-26T22:33:56.132Z,18.8
2022-08-26T22:35:57.604Z,18.8
2022-08-26T22:37:54.941Z,18.7
2022-08-26T22:39:58.335Z,18.8
2022-08-26T22:41:57.744Z,18.8
2022-08-26T22:43:54.756Z,18.8
2022-08-26T22:45:57.029Z,18.9
2022-08-26T22:47:57.966Z,18.6
2022-08-26T22:49:54.789Z,18.6
2022-08-26T22:51:56.650Z,18.5
2022-08-26T22:53:57.792Z,18.6
2022-08-26T22:55:56.996Z,18.6
2022-08-26T22:58:01.319Z,18.5
2022-08-26T22:59:57.914Z,18.5
2022-08-26T23:01:56.545Z,18.5
2022-08-26T23:05:58.421Z,18.6
2022-08-26T23:07:55.669Z,18.5
2022-08-26T23:09:57.656Z,18.4
2022-08-26T23:11:57.471Z,18.4
2022-08-26T23:13:53.770Z,18.4
2022-08-26T23:15:56.699Z,18.4
2022-08-26T23:17:58.665Z,18.5
2022-08-26T23:19:56.674Z,18.6
2022-08-26T23:21:54.808Z,18.4
2022-08-26T23:23:58.315Z,18.3
2022-08-26T23:25:57.344Z,18.2
2022-08-26T23:27:58.404Z,18.3
2022-08-26T23:29:57.895Z,18.2
2022-08-26T23:32:00.150Z,18.2
2022-08-26T23:33:53.388Z,18.2
2022-08-26T23:35:57.780Z,18.2
2022-08-26T23:37:56.132Z,18.2
2022-08-26T23:39:54.736Z,18.2
2022-08-26T23:41:57.686Z,18.2
2022-08-26T23:43:56.272Z,18.3
2022-08-26T23:46:04.111Z,18.4
2022-08-26T23:47:58.058Z,18.2
2022-08-26T23:49:54.739Z,17.9
2022-08-26T23:51:55.207Z,17.8
2022-08-26T23:53:58.210Z,17.7
2022-08-26T23:55:53.509Z,17.8
2022-08-26T23:57:57.062Z,17.8
